Flight Track Log - Related Links

Times and Time Zones

All times are in EDT time to prevent confusion due to time zone crossing. See the UAL4093 flight status page for this flight to view local times or setup timezone preferences in your user account.

Time Position Orientation Groundspeed Altitude Reporting Facility
EDT Latitude Longitude Course Direction KTS MPH feet Rate Location/Type
Wed 05:07:22 PM 39.0500 -84.7000 North 175 201 1,600  Level Cincinnati TRACON
Wed 05:08:16 PM 39.0667 -84.7500 293° West 201 231 3,100 1,662 Climbing Cincinnati TRACON
Wed 05:09:50 PM 39.1281 -84.7700 346° North 265 305 5,700 1,731 Climbing Indianapolis Center
Wed 05:10:00 PM 39.1338 -84.4000 North  Level FlightAware Approximate
Wed 05:10:52 PM 39.1947 -84.7131 33° Northeast 280 322 7,600  Level Indianapolis Center
Wed 05:11:00 PM 39.2401 -84.4000 North  Level FlightAware Approximate
Wed 05:11:54 PM 39.2764 -84.6414 34° Northeast 296 341 10,000  Level Indianapolis Center
Wed 05:12:00 PM 39.3465 -84.4000 North  Level FlightAware Approximate
Wed 05:12:56 PM 39.3550 -84.5756 33° Northeast 324 373 10,900  Level Indianapolis Center
Wed 05:13:58 PM 39.4403 -84.5031 33° Northeast 354 407 12,400 1,452 Climbing Indianapolis Center
Wed 05:15:00 PM 39.5256 -84.4300 33° Northeast 362 417 13,900 1,452 Climbing Indianapolis Center
Wed 05:16:02 PM 39.6097 -84.3483 37° Northeast 372 428 15,400 1,415 Climbing Indianapolis Center
Wed 05:17:03 PM 39.6919 -84.2642 38° Northeast 372 428 16,800 1,366 Climbing Indianapolis Center
Wed 05:18:05 PM 39.7758 -84.1786 38° Northeast 377 434 18,200 1,403 Climbing Indianapolis Center
Wed 05:19:07 PM 39.8564 -84.0897 40° Northeast 375 432 19,700 1,355 Climbing Indianapolis Center
Wed 05:20:09 PM 39.9339 -83.9919 44° Northeast 379 436 21,000 1,355 Climbing Indianapolis Center
Wed 05:21:11 PM 40.0142 -83.8933 43° Northeast 386 444 22,500 1,561 Climbing Indianapolis Center
Wed 05:22:12 PM 40.1067 -83.7769 44° Northeast 390 449 24,200 1,415 Climbing Indianapolis Center
Wed 05:23:14 PM 40.1864 -83.6764 44° Northeast 391 450 25,400 1,113 Climbing Indianapolis Center
Wed 05:24:16 PM 40.2675 -83.5747 44° Northeast 397 457 26,500 1,016 Climbing Indianapolis Center
Wed 05:25:18 PM 40.3492 -83.4697 44° Northeast 405 466 27,500 968 Climbing Indianapolis Center
Wed 05:26:20 PM 40.4314 -83.3664 44° Northeast 404 465 28,500 968 Climbing Indianapolis Center
Wed 05:27:22 PM 40.5139 -83.2606 44° Northeast 409 471 29,500 968 Climbing Indianapolis Center
Wed 05:28:24 PM 40.5928 -83.1586 44° Northeast 410 472 30,500 1,010 Climbing Indianapolis Center
Wed 05:29:03 PM 40.6589 -83.0767 43° Northeast 400 460 31,200 1,041 Climbing Cleveland Center
Wed 05:30:02 PM 40.7406 -82.9700 45° Northeast 406 467 32,200 1,008 Climbing Cleveland Center
Wed 05:31:02 PM 40.8097 -82.8408 55° Northeast 411 473 33,200 1,000 Climbing Cleveland Center
Wed 05:32:02 PM 40.8622 -82.7247 59° Northeast 419 482 34,200 900 Climbing Cleveland Center
Wed 05:33:02 PM 40.9272 -82.5783 60° Northeast 419 482 35,000 400 Climbing Cleveland Center
Wed 05:34:02 PM 40.9900 -82.4428 58° Northeast 419 482 35,000  Level Cleveland Center
Wed 05:35:02 PM 41.0547 -82.2986 59° Northeast 433 498 35,000  Level Cleveland Center
Wed 05:36:02 PM 41.1172 -82.1597 59° Northeast 439 505 35,000  Level Cleveland Center
Wed 05:37:02 PM 41.1733 -82.0314 60° Northeast 445 512 35,000  Level Cleveland Center
Wed 05:38:02 PM 41.2353 -81.8947 59° Northeast 440 506 35,000  Level Cleveland Center
Wed 05:39:02 PM 41.2972 -81.7522 60° Northeast 435 501 35,000  Level Cleveland Center
Wed 05:40:02 PM 41.3592 -81.6150 59° Northeast 440 506 35,000  Level Cleveland Center
Wed 05:41:02 PM 41.4250 -81.4583 61° Northeast 440 506 35,000  Level Cleveland Center
Wed 05:42:02 PM 41.4864 -81.3178 60° Northeast 440 506 35,000  Level Cleveland Center
Wed 05:43:02 PM 41.5500 -81.1742 59° Northeast 440 506 35,000  Level Cleveland Center
Wed 05:44:02 PM 41.6111 -81.0303 60° Northeast 440 506 35,000  Level Cleveland Center
Wed 05:45:02 PM 41.6719 -80.8861 61° Northeast 440 506 35,000  Level Cleveland Center
Wed 05:46:02 PM 41.7347 -80.7417 60° Northeast 440 506 35,000  Level Cleveland Center
Wed 05:47:03 PM 41.7892 -80.5942 64° Northeast 435 501 35,000  Level Cleveland Center
Wed 05:48:02 PM 41.7847 -80.4244 92° East 435 501 35,000  Level Cleveland Center
Wed 05:49:02 PM 41.7656 -80.2464 98° East 451 519 35,000  Level Cleveland Center
Wed 05:50:02 PM 41.7506 -80.0878 97° East 469 540 35,000  Level Cleveland Center
Wed 05:51:02 PM 41.7328 -79.9125 98° East 480 552 35,000  Level Cleveland Center
Wed 05:52:02 PM 41.7131 -79.7319 98° East 487 560 35,000 -300 Level Cleveland Center
Wed 05:53:02 PM 41.6969 -79.5597 97° East 479 551 34,400 -1,250 Descending Cleveland Center
Wed 05:54:02 PM 41.6764 -79.3794 99° East 479 551 32,500 -1,200 Descending Cleveland Center
Wed 05:55:02 PM 41.6578 -79.2075 98° East 479 551 32,000 -633 Descending Cleveland Center
Wed 05:57:02 PM 41.6178 -78.8556 99° East 479 551 30,600 -933 Descending Cleveland Center
Wed 05:58:02 PM 41.5961 -78.6756 99° East 484 557 29,200 -793 Descending Cleveland Center
Wed 05:59:03 PM 41.5764 -78.5014 99° East 484 557 29,000 -100 Descending Cleveland Center
Wed 06:00:02 PM 41.5564 -78.3272 99° East 484 557 29,000  Level Cleveland Center
Wed 06:01:02 PM 41.5339 -78.1475 99° East 484 557 29,000  Level Cleveland Center
Wed 06:02:22 PM 41.5044 -77.9125 99° East 492 566 29,000  Level New York Center
Wed 06:03:23 PM 41.4797 -77.7325 100° East 498 573 29,000  Level New York Center
Wed 06:04:24 PM 41.4528 -77.5497 101° East 498 573 29,000  Level New York Center
Wed 06:05:22 PM 41.4244 -77.3533 101° East 492 566 29,000  Level New York Center
Wed 06:06:22 PM 41.3947 -77.1733 102° East 492 566 29,000  Level New York Center
Wed 06:07:23 PM 41.3689 -76.9911 101° East 492 566 29,000 -450 Level New York Center
Wed 06:08:22 PM 41.3408 -76.8089 102° East 492 566 28,100 -1,438 Descending New York Center
Wed 06:09:24 PM 41.2994 -76.6367 108° East 497 572 26,100 -1,934 Descending New York Center
Wed 06:10:23 PM 41.2536 -76.4642 109° East 497 572 24,200 -2,150 Descending New York Center
Wed 06:11:24 PM 41.2125 -76.3203 111° Southeast 485 558 21,800 -2,281 Descending New York Center
Wed 06:12:24 PM 41.1700 -76.1622 110° East 465 535 19,600 -2,136 Descending New York Center
Wed 06:13:22 PM 41.1292 -76.0019 109° East 429 494 17,600 -1,966 Descending New York Center
Wed 06:14:23 PM 41.0914 -75.8642 110° East 414 476 15,700 -1,869 Descending New York Center
Wed 06:15:24 PM 41.0536 -75.7267 110° East 403 464 13,800 -1,350 Descending New York Center
Wed 06:16:23 PM 41.0189 -75.6031 110° East 396 456 13,000 -403 Descending New York Center
Wed 06:17:23 PM 40.9806 -75.4711 111° Southeast 391 450 13,000 -500 Level New York Center
Wed 06:18:23 PM 40.9461 -75.3422 109° East 380 437 12,000 -1,190 Descending New York Center
Wed 06:19:24 PM 40.9150 -75.2303 110° East 340 391 10,600 -1,736 Descending New York Center
Wed 06:20:24 PM 40.8817 -75.1156 111° Southeast 312 359 8,500 -1,700 Descending New York Center
Wed 06:21:24 PM 40.8708 -75.0108 98° East 302 348 7,200 -750 Descending New York Center
Wed 06:22:24 PM 40.8703 -74.9119 90° East 280 322 7,000 -102 Descending New York Center
Wed 06:23:22 PM 40.8506 -74.8175 105° East 280 322 7,000 -450 Level New York Center
Wed 06:24:24 PM 40.8189 -74.7086 111° Southeast 285 328 6,100 -443 Descending New York Center
Wed 06:25:24 PM 40.7794 -74.6378 126° Southeast 278 320 6,100 -51 Level New York Center
Wed 06:26:22 PM 40.7014 -74.6061 163° South 263 303 6,000 -407 Descending New York Center
Wed 06:27:22 PM 40.6331 -74.5967 174° South 274 315 5,300 -422 Descending New York Center
Wed 06:28:30 PM 40.5500 -74.5833 173° South 243 280 5,100 -141 Descending New York TRACON
Wed 06:29:30 PM 40.4833 -74.5667 169° South 238 274 5,000 -500 Descending New York TRACON
Wed 06:30:30 PM 40.4333 -74.5167 143° Southeast 218 251 4,100 -500 Descending New York TRACON
Wed 06:31:30 PM 40.4000 -74.4667 131° Southeast 202 232 4,000 -250 Descending New York TRACON
Wed 06:32:30 PM 40.4000 -74.3833 90° East 202 232 3,600 -450 Descending New York TRACON
Wed 06:33:30 PM 40.4333 -74.3333 49° Northeast 202 232 3,100 -400 Descending New York TRACON
Wed 06:34:30 PM 40.4667 -74.3000 37° Northeast 187 215 2,800 -100 Descending New York TRACON
Wed 06:35:30 PM 40.5167 -74.2667 27° Northeast 190 219 2,900 -100 Climbing New York TRACON
Wed 06:36:30 PM 40.5667 -74.2500 14° North 186 214 2,600 -650 Descending New York TRACON
Wed 06:37:30 PM 40.6167 -74.2167 27° Northeast 171 197 1,600 -900 Descending New York TRACON
Wed 06:38:30 PM 40.6500 -74.2000 21° North 134 154 800 -800 Descending New York TRACON

Login

Don't have an account? Register now (free) for customized features, flight alerts, and more!